sensor_id;sensor_type;location;lat;lon;timestamp;pressure;altitude;pressure_sealevel;temperature;humidity
47154;BME280;32907;41.412;2.164;2023-11-19T00:01:15;101296.75;;;22.09;42.65
47154;BME280;32907;41.412;2.164;2023-11-19T00:03:44;101292.94;;;22.10;42.53
47154;BME280;32907;41.412;2.164;2023-11-19T00:06:13;101282.81;;;22.10;41.44
47154;BME280;32907;41.412;2.164;2023-11-19T00:08:41;101256.41;;;21.95;41.86
47154;BME280;32907;41.412;2.164;2023-11-19T00:11:09;101281.47;;;22.08;40.76
47154;BME280;32907;41.412;2.164;2023-11-19T00:13:37;101281.19;;;22.04;41.30
47154;BME280;32907;41.412;2.164;2023-11-19T00:16:06;101268.94;;;22.01;40.97
47154;BME280;32907;41.412;2.164;2023-11-19T00:18:35;101265.09;;;22.02;41.69
47154;BME280;32907;41.412;2.164;2023-11-19T00:21:06;101262.38;;;22.02;41.67
47154;BME280;32907;41.412;2.164;2023-11-19T00:23:36;101256.09;;;22.02;41.33
47154;BME280;32907;41.412;2.164;2023-11-19T00:26:04;101262.38;;;22.02;40.61
47154;BME280;32907;41.412;2.164;2023-11-19T00:28:34;101260.75;;;22.01;40.72
47154;BME280;32907;41.412;2.164;2023-11-19T00:31:02;101262.38;;;22.02;40.52
47154;BME280;32907;41.412;2.164;2023-11-19T00:33:31;101254.47;;;22.01;40.77
47154;BME280;32907;41.412;2.164;2023-11-19T00:35:59;101257.50;;;21.99;40.21
47154;BME280;32907;41.412;2.164;2023-11-19T00:38:27;101255.28;;;22.01;40.26
47154;BME280;32907;41.412;2.164;2023-11-19T00:40:55;101257.19;;;22.01;40.40
47154;BME280;32907;41.412;2.164;2023-11-19T00:43:24;101250.91;;;22.00;40.71
47154;BME280;32907;41.412;2.164;2023-11-19T00:45:54;101267.00;;;22.02;40.20
47154;BME280;32907;41.412;2.164;2023-11-19T00:48:23;101251.44;;;22.02;39.97
47154;BME280;32907;41.412;2.164;2023-11-19T00:50:52;101251.44;;;22.02;40.27
47154;BME280;32907;41.412;2.164;2023-11-19T00:53:20;101248.72;;;22.02;39.91
47154;BME280;32907;41.412;2.164;2023-11-19T00:55:48;101244.41;;;21.96;39.28
47154;BME280;32907;41.412;2.164;2023-11-19T00:58:16;101240.03;;;21.95;39.14
47154;BME280;32907;41.412;2.164;2023-11-19T01:00:46;101250.41;;;21.98;39.75
47154;BME280;32907;41.412;2.164;2023-11-19T01:03:14;101244.41;;;21.96;39.46
47154;BME280;32907;41.412;2.164;2023-11-19T01:05:43;101246.31;;;21.96;39.57
47154;BME280;32907;41.412;2.164;2023-11-19T01:08:12;101239.81;;;21.92;39.54
47154;BME280;32907;41.412;2.164;2023-11-19T01:10:41;101243.34;;;21.92;39.26
47154;BME280;32907;41.412;2.164;2023-11-19T01:13:09;101239.28;;;21.90;39.21
47154;BME280;32907;41.412;2.164;2023-11-19T01:15:38;101239.56;;;21.88;38.94
47154;BME280;32907;41.412;2.164;2023-11-19T01:18:08;101235.19;;;21.87;38.75
47154;BME280;32907;41.412;2.164;2023-11-19T01:20:37;101227.53;;;21.89;39.04
47154;BME280;32907;41.412;2.164;2023-11-19T01:23:05;101227.81;;;21.88;39.15
47154;BME280;32907;41.412;2.164;2023-11-19T01:25:33;101217.72;;;21.88;38.82
47154;BME280;32907;41.412;2.164;2023-11-19T01:28:02;101231.09;;;21.90;38.65
47154;BME280;32907;41.412;2.164;2023-11-19T01:30:30;101231.09;;;21.90;38.94
47154;BME280;32907;41.412;2.164;2023-11-19T01:32:58;101229.19;;;21.90;38.87
47154;BME280;32907;41.412;2.164;2023-11-19T01:35:26;101232.44;;;21.92;38.46
47154;BME280;32907;41.412;2.164;2023-11-19T01:37:55;101236.78;;;21.93;39.08
47154;BME280;32907;41.412;2.164;2023-11-19T01:40:24;101236.78;;;21.93;38.40
47154;BME280;32907;41.412;2.164;2023-11-19T01:42:53;101238.19;;;21.91;38.25
47154;BME280;32907;41.412;2.164;2023-11-19T01:45:27;101233.53;;;21.91;38.17
47154;BME280;32907;41.412;2.164;2023-11-19T01:47:57;101236.56;;;21.90;38.29
47154;BME280;32907;41.412;2.164;2023-11-19T01:50:27;101233.56;;;21.86;38.01
47154;BME280;32907;41.412;2.164;2023-11-19T01:52:56;101218.09;;;21.76;38.60
47154;BME280;32907;41.412;2.164;2023-11-19T01:55:26;101240.66;;;21.87;38.66
47154;BME280;32907;41.412;2.164;2023-11-19T01:57:59;101230.84;;;21.86;38.68
47154;BME280;32907;41.412;2.164;2023-11-19T02:00:28;101237.38;;;21.90;38.95
47154;BME280;32907;41.412;2.164;2023-11-19T02:02:57;101222.63;;;21.91;38.83
47154;BME280;32907;41.412;2.164;2023-11-19T02:05:25;101232.44;;;21.92;39.06
47154;BME280;32907;41.412;2.164;2023-11-19T02:07:54;101228.59;;;21.93;39.48
47154;BME280;32907;41.412;2.164;2023-11-19T02:10:22;101230.50;;;21.93;38.78
47154;BME280;32907;41.412;2.164;2023-11-19T02:12:53;101231.91;;;21.90;38.48
47154;BME280;32907;41.412;2.164;2023-11-19T02:15:33;101234.63;;;21.90;39.10
47154;BME280;32907;41.412;2.164;2023-11-19T02:18:18;101233.25;;;21.93;38.92
47154;BME280;32907;41.412;2.164;2023-11-19T02:20:47;101232.72;;;21.91;39.38
47154;BME280;32907;41.412;2.164;2023-11-19T02:23:18;101225.34;;;21.91;39.22
47154;BME280;32907;41.412;2.164;2023-11-19T02:28:27;101218.25;;;21.90;39.27
47154;BME280;32907;41.412;2.164;2023-11-19T02:30:56;101209.00;;;21.86;39.07
47154;BME280;32907;41.412;2.164;2023-11-19T02:33:24;101206.31;;;21.81;39.32
47154;BME280;32907;41.412;2.164;2023-11-19T02:35:53;101202.50;;;21.82;39.41
47154;BME280;32907;41.412;2.164;2023-11-19T02:38:21;101198.66;;;21.83;39.50
47154;BME280;32907;41.412;2.164;2023-11-19T02:40:50;101198.06;;;21.86;39.23
47154;BME280;32907;41.412;2.164;2023-11-19T02:43:18;101201.66;;;21.82;39.24
47154;BME280;32907;41.412;2.164;2023-11-19T02:45:47;101196.19;;;21.82;39.06
47154;BME280;32907;41.412;2.164;2023-11-19T02:48:15;101197.84;;;21.83;39.08
47154;BME280;32907;41.412;2.164;2023-11-19T02:50:43;101194.31;;;21.82;39.29
47154;BME280;32907;41.412;2.164;2023-11-19T02:53:11;101189.91;;;21.81;39.00
47154;BME280;32907;41.412;2.164;2023-11-19T02:55:41;101192.94;;;21.79;39.16
47154;BME280;32907;41.412;2.164;2023-11-19T02:58:16;101185.84;;;21.78;39.10
47154;BME280;32907;41.412;2.164;2023-11-19T03:00:56;101189.91;;;21.81;39.33
47154;BME280;32907;41.412;2.164;2023-11-19T03:03:26;101167.56;;;21.79;39.28
47154;BME280;32907;41.412;2.164;2023-11-19T03:06:07;101182.81;;;21.85;39.52
47154;BME280;32907;41.412;2.164;2023-11-19T03:08:36;101171.59;;;21.87;39.29
47154;BME280;32907;41.412;2.164;2023-11-19T03:11:05;101174.03;;;21.88;39.23
47154;BME280;32907;41.412;2.164;2023-11-19T03:13:34;101165.84;;;21.88;39.30
47154;BME280;32907;41.412;2.164;2023-11-19T03:16:02;101171.84;;;21.90;39.21
47154;BME280;32907;41.412;2.164;2023-11-19T03:18:31;101167.19;;;21.91;39.38
47154;BME280;32907;41.412;2.164;2023-11-19T03:20:59;101163.66;;;21.90;38.95
47154;BME280;32907;41.412;2.164;2023-11-19T03:23:27;101165.78;;;21.93;38.85
47154;BME280;32907;41.412;2.164;2023-11-19T03:25:56;101157.59;;;21.93;39.01
47154;BME280;32907;41.412;2.164;2023-11-19T03:28:24;101158.94;;;21.96;39.08
47154;BME280;32907;41.412;2.164;2023-11-19T03:30:53;101170.66;;;21.96;38.98
47154;BME280;32907;41.412;2.164;2023-11-19T03:33:21;101166.31;;;21.95;38.72
47154;BME280;32907;41.412;2.164;2023-11-19T03:35:49;101156.78;;;21.93;38.84
47154;BME280;32907;41.412;2.164;2023-11-19T03:38:19;101167.94;;;21.96;38.91
47154;BME280;32907;41.412;2.164;2023-11-19T03:40:48;101163.06;;;21.93;38.75
47154;BME280;32907;41.412;2.164;2023-11-19T03:43:17;101164.16;;;21.92;39.10
47154;BME280;32907;41.412;2.164;2023-11-19T03:45:47;101162.25;;;21.93;38.85
47154;BME280;32907;41.412;2.164;2023-11-19T03:48:16;101151.91;;;21.90;38.88
47154;BME280;32907;41.412;2.164;2023-11-19T03:50:44;101154.09;;;21.88;38.88
47154;BME280;32907;41.412;2.164;2023-11-19T03:53:12;101154.16;;;21.83;39.03
47154;BME280;32907;41.412;2.164;2023-11-19T03:55:41;101154.72;;;21.79;38.85
47154;BME280;32907;41.412;2.164;2023-11-19T03:58:10;101156.09;;;21.82;38.92
47154;BME280;32907;41.412;2.164;2023-11-19T04:00:38;101157.97;;;21.82;39.20
47154;BME280;32907;41.412;2.164;2023-11-19T04:03:08;101153.06;;;21.84;39.00
47154;BME280;32907;41.412;2.164;2023-11-19T04:05:37;101158.81;;;21.82;38.89
47154;BME280;32907;41.412;2.164;2023-11-19T04:08:06;101153.88;;;21.84;39.29
47154;BME280;32907;41.412;2.164;2023-11-19T04:10:33;101152.25;;;21.83;39.32
47154;BME280;32907;41.412;2.164;2023-11-19T04:13:01;101155.53;;;21.80;39.21
47154;BME280;32907;41.412;2.164;2023-11-19T04:15:30;101143.56;;;21.76;39.50
47154;BME280;32907;41.412;2.164;2023-11-19T04:17:59;101147.94;;;21.77;39.35
47154;BME280;32907;41.412;2.164;2023-11-19T04:20:26;101144.38;;;21.76;39.31
47154;BME280;32907;41.412;2.164;2023-11-19T04:22:56;101145.19;;;21.77;39.08
47154;BME280;32907;41.412;2.164;2023-11-19T04:25:24;101143.00;;;21.79;39.08
47154;BME280;32907;41.412;2.164;2023-11-19T04:27:53;101132.59;;;21.81;39.30
47154;BME280;32907;41.412;2.164;2023-11-19T04:30:22;101137.53;;;21.79;39.21
47154;BME280;32907;41.412;2.164;2023-11-19T04:32:50;101131.56;;;21.77;39.13
47154;BME280;32907;41.412;2.164;2023-11-19T04:35:18;101138.94;;;21.76;39.39
47154;BME280;32907;41.412;2.164;2023-11-19T04:37:47;101132.66;;;21.76;39.26
47154;BME280;32907;41.412;2.164;2023-11-19T04:40:15;101138.13;;;21.76;39.07
47154;BME280;32907;41.412;2.164;2023-11-19T04:42:43;101137.31;;;21.75;39.50
47154;BME280;32907;41.412;2.164;2023-11-19T04:45:11;101140.84;;;21.76;39.10
47154;BME280;32907;41.412;2.164;2023-11-19T04:47:40;101137.81;;;21.77;39.58
47154;BME280;32907;41.412;2.164;2023-11-19T04:50:08;101125.56;;;21.75;39.36
47154;BME280;32907;41.412;2.164;2023-11-19T04:52:39;101146.81;;;21.78;39.36
47154;BME280;32907;41.412;2.164;2023-11-19T04:55:08;101138.63;;;21.78;39.63
47154;BME280;32907;41.412;2.164;2023-11-19T04:57:39;101137.53;;;21.79;39.68
47154;BME280;32907;41.412;2.164;2023-11-19T05:00:08;101128.22;;;21.80;39.97
47154;BME280;32907;41.412;2.164;2023-11-19T05:02:41;101136.44;;;21.80;39.91
47154;BME280;32907;41.412;2.164;2023-11-19T05:05:10;101138.63;;;21.78;39.68
47154;BME280;32907;41.412;2.164;2023-11-19T05:07:38;101132.06;;;21.79;39.90
47154;BME280;32907;41.412;2.164;2023-11-19T05:10:07;101140.25;;;21.79;39.75
47154;BME280;32907;41.412;2.164;2023-11-19T05:12:35;101126.06;;;21.82;40.12
47154;BME280;32907;41.412;2.164;2023-11-19T05:15:04;101133.41;;;21.82;39.63
47154;BME280;32907;41.412;2.164;2023-11-19T05:17:32;101133.13;;;21.83;39.69
47154;BME280;32907;41.412;2.164;2023-11-19T05:20:00;101134.25;;;21.82;39.59
47154;BME280;32907;41.412;2.164;2023-11-19T05:22:28;101138.59;;;21.83;39.91
47154;BME280;32907;41.412;2.164;2023-11-19T05:24:56;101148.69;;;21.83;39.80
47154;BME280;32907;41.412;2.164;2023-11-19T05:27:24;101143.25;;;21.83;39.98
47154;BME280;32907;41.412;2.164;2023-11-19T05:29:54;101144.06;;;21.83;40.08
47154;BME280;32907;41.412;2.164;2023-11-19T05:32:23;101142.44;;;21.82;39.88
47154;BME280;32907;41.412;2.164;2023-11-19T05:34:50;101141.59;;;21.82;39.65
47154;BME280;32907;41.412;2.164;2023-11-19T05:37:19;101143.00;;;21.79;39.88
47154;BME280;32907;41.412;2.164;2023-11-19T05:39:47;101140.25;;;21.79;39.94
47154;BME280;32907;41.412;2.164;2023-11-19T05:42:16;101139.44;;;21.78;39.59
47154;BME280;32907;41.412;2.164;2023-11-19T05:44:44;101141.88;;;21.80;40.10
47154;BME280;32907;41.412;2.164;2023-11-19T05:47:12;101140.03;;;21.75;39.39
47154;BME280;32907;41.412;2.164;2023-11-19T05:49:40;101138.16;;;21.71;39.91
47154;BME280;32907;41.412;2.164;2023-11-19T05:52:08;101144.44;;;21.71;39.63
47154;BME280;32907;41.412;2.164;2023-11-19T05:54:39;101137.88;;;21.72;39.83
47154;BME280;32907;41.412;2.164;2023-11-19T05:57:08;101137.59;;;21.74;39.75
47154;BME280;32907;41.412;2.164;2023-11-19T05:59:40;101138.97;;;21.71;40.01
47154;BME280;32907;41.412;2.164;2023-11-19T06:02:09;101139.25;;;21.70;39.63
47154;BME280;32907;41.412;2.164;2023-11-19T06:04:37;101141.75;;;21.66;39.77
47154;BME280;32907;41.412;2.164;2023-11-19T06:07:05;101137.38;;;21.65;39.75
47154;BME280;32907;41.412;2.164;2023-11-19T06:09:34;101125.72;;;21.60;40.14
47154;BME280;32907;41.412;2.164;2023-11-19T06:12:02;101119.16;;;21.61;39.84
47154;BME280;32907;41.412;2.164;2023-11-19T06:14:31;101137.69;;;21.64;40.04
47154;BME280;32907;41.412;2.164;2023-11-19T06:17:00;101123.81;;;21.60;39.75
47154;BME280;32907;41.412;2.164;2023-11-19T06:19:28;101132.50;;;21.62;39.58
47154;BME280;32907;41.412;2.164;2023-11-19T06:21:57;101132.81;;;21.61;40.07
47154;BME280;32907;41.412;2.164;2023-11-19T06:24:25;101140.41;;;21.64;39.93
47154;BME280;32907;41.412;2.164;2023-11-19T06:26:53;101140.41;;;21.64;39.84
47154;BME280;32907;41.412;2.164;2023-11-19T06:29:21;101140.41;;;21.64;39.89
47154;BME280;32907;41.412;2.164;2023-11-19T06:31:49;101146.97;;;21.63;39.77
47154;BME280;32907;41.412;2.164;2023-11-19T06:34:17;101144.81;;;21.60;39.59
47154;BME280;32907;41.412;2.164;2023-11-19T06:36:46;101150.28;;;21.60;39.54
47154;BME280;32907;41.412;2.164;2023-11-19T06:39:14;101155.75;;;21.60;39.72
47154;BME280;32907;41.412;2.164;2023-11-19T06:41:46;101161.19;;;21.60;39.84
47154;BME280;32907;41.412;2.164;2023-11-19T06:44:14;101165.59;;;21.56;39.88
47154;BME280;32907;41.412;2.164;2023-11-19T06:46:42;101166.66;;;21.60;40.32
47154;BME280;32907;41.412;2.164;2023-11-19T06:49:10;101174.31;;;21.58;39.87
47154;BME280;32907;41.412;2.164;2023-11-19T06:51:42;101175.69;;;21.55;40.04
47154;BME280;32907;41.412;2.164;2023-11-19T06:54:11;101177.31;;;21.56;40.24
47154;BME280;32907;41.412;2.164;2023-11-19T06:56:40;101184.69;;;21.56;39.92
47154;BME280;32907;41.412;2.164;2023-11-19T06:59:09;101178.13;;;21.57;40.08
47154;BME280;32907;41.412;2.164;2023-11-19T07:01:37;101177.59;;;21.55;40.19
47154;BME280;32907;41.412;2.164;2023-11-19T07:04:06;101183.06;;;21.55;40.43
47154;BME280;32907;41.412;2.164;2023-11-19T07:06:37;101181.97;;;21.56;39.63
47154;BME280;32907;41.412;2.164;2023-11-19T07:09:05;101186.88;;;21.59;40.15
47154;BME280;32907;41.412;2.164;2023-11-19T07:11:40;101174.03;;;21.59;40.08
47154;BME280;32907;41.412;2.164;2023-11-19T07:14:09;101178.13;;;21.57;40.25
47154;BME280;32907;41.412;2.164;2023-11-19T07:16:38;101197.22;;;21.57;40.24
47154;BME280;32907;41.412;2.164;2023-11-19T07:19:06;101186.38;;;21.52;40.20
47154;BME280;32907;41.412;2.164;2023-11-19T07:21:35;101189.41;;;21.50;40.36
47154;BME280;32907;41.412;2.164;2023-11-19T07:24:07;101175.25;;;21.43;41.12
47154;BME280;32907;41.412;2.164;2023-11-19T07:26:35;101199.97;;;21.57;40.68
47154;BME280;32907;41.412;2.164;2023-11-19T07:29:03;101196.38;;;21.61;40.69
47154;BME280;32907;41.412;2.164;2023-11-19T07:31:35;101194.47;;;21.62;40.49
47154;BME280;32907;41.412;2.164;2023-11-19T07:34:04;101207.31;;;21.61;40.36
47154;BME280;32907;41.412;2.164;2023-11-19T07:36:34;101208.63;;;21.64;40.19
47154;BME280;32907;41.412;2.164;2023-11-19T07:39:04;101212.75;;;21.61;40.21
47154;BME280;32907;41.412;2.164;2023-11-19T07:41:32;101169.63;;;21.24;40.63
47154;BME280;32907;41.412;2.164;2023-11-19T07:44:05;101215.25;;;21.58;40.51
47154;BME280;32907;41.412;2.164;2023-11-19T07:46:34;101220.66;;;21.63;40.85
47154;BME280;32907;41.412;2.164;2023-11-19T07:49:02;101230.72;;;21.67;40.84
47154;BME280;32907;41.412;2.164;2023-11-19T07:51:30;101230.97;;;21.71;41.07
47154;BME280;32907;41.412;2.164;2023-11-19T07:53:58;101237.72;;;21.78;41.57
47154;BME280;32907;41.412;2.164;2023-11-19T07:56:26;101240.44;;;21.84;42.27
47154;BME280;32907;41.412;2.164;2023-11-19T07:58:55;101234.91;;;21.89;42.10
47154;BME280;32907;41.412;2.164;2023-11-19T08:01:23;101237.88;;;21.92;41.27
47154;BME280;32907;41.412;2.164;2023-11-19T08:03:51;101233.81;;;21.90;41.71
47154;BME280;32907;41.412;2.164;2023-11-19T08:06:22;101245.19;;;21.97;41.33
47154;BME280;32907;41.412;2.164;2023-11-19T08:08:50;101248.19;;;22.00;41.14
47154;BME280;32907;41.412;2.164;2023-11-19T08:11:20;101248.72;;;22.02;41.26
47154;BME280;32907;41.412;2.164;2023-11-19T08:13:48;101251.97;;;22.04;40.97
47154;BME280;32907;41.412;2.164;2023-11-19T08:16:16;101257.72;;;22.08;41.10
47154;BME280;32907;41.412;2.164;2023-11-19T08:18:44;101255.50;;;22.10;40.82
47154;BME280;32907;41.412;2.164;2023-11-19T08:21:12;101259.03;;;22.11;40.91
47154;BME280;32907;41.412;2.164;2023-11-19T08:23:41;101257.41;;;22.10;40.67
47154;BME280;32907;41.412;2.164;2023-11-19T08:26:09;101264.22;;;22.12;41.00
47154;BME280;32907;41.412;2.164;2023-11-19T08:28:37;101256.56;;;22.14;41.41
47154;BME280;32907;41.412;2.164;2023-11-19T08:31:06;101262.56;;;22.16;41.00
47154;BME280;32907;41.412;2.164;2023-11-19T08:33:34;101274.28;;;22.17;41.45
47154;BME280;32907;41.412;2.164;2023-11-19T08:36:02;101270.75;;;22.16;41.47
47154;BME280;32907;41.412;2.164;2023-11-19T08:38:32;101280.28;;;22.19;41.79
47154;BME280;32907;41.412;2.164;2023-11-19T08:41:00;101270.16;;;22.19;41.75
47154;BME280;32907;41.412;2.164;2023-11-19T08:43:29;101264.50;;;22.11;42.19
47154;BME280;32907;41.412;2.164;2023-11-19T08:45:59;101275.91;;;22.18;42.16
47154;BME280;32907;41.412;2.164;2023-11-19T08:48:27;101278.88;;;22.21;41.95
47154;BME280;32907;41.412;2.164;2023-11-19T08:50:55;101279.16;;;22.20;41.50
47154;BME280;32907;41.412;2.164;2023-11-19T08:53:23;101277.81;;;22.22;41.66
47154;BME280;32907;41.412;2.164;2023-11-19T08:55:51;101274.78;;;22.24;41.55
47154;BME280;32907;41.412;2.164;2023-11-19T08:58:20;101276.69;;;22.23;41.82
47154;BME280;32907;41.412;2.164;2023-11-19T09:00:48;101273.97;;;22.23;41.52
47154;BME280;32907;41.412;2.164;2023-11-19T09:03:16;101275.34;;;22.21;41.78
47154;BME280;32907;41.412;2.164;2023-11-19T09:05:44;101274.25;;;22.22;41.95
47154;BME280;32907;41.412;2.164;2023-11-19T09:08:12;101280.25;;;22.24;42.67
47154;BME280;32907;41.412;2.164;2023-11-19T09:10:40;101279.13;;;22.25;42.08
47154;BME280;32907;41.412;2.164;2023-11-19T09:13:08;101281.56;;;22.26;42.36
47154;BME280;32907;41.412;2.164;2023-11-19T09:15:37;101269.31;;;22.24;42.02
47154;BME280;32907;41.412;2.164;2023-11-19T09:18:05;101275.88;;;22.23;42.17
47154;BME280;32907;41.412;2.164;2023-11-19T09:20:33;101270.16;;;22.19;42.08
47154;BME280;32907;41.412;2.164;2023-11-19T09:23:07;101266.09;;;22.17;41.87
47154;BME280;32907;41.412;2.164;2023-11-19T09:25:36;101274.53;;;22.20;41.75
47154;BME280;32907;41.412;2.164;2023-11-19T09:28:07;101278.88;;;22.21;44.18
47154;BME280;32907;41.412;2.164;2023-11-19T09:30:36;101282.44;;;22.22;43.09
47154;BME280;32907;41.412;2.164;2023-11-19T09:33:04;101286.81;;;22.23;43.08
47154;BME280;32907;41.412;2.164;2023-11-19T09:35:33;101284.06;;;22.23;42.72
47154;BME280;32907;41.412;2.164;2023-11-19T09:38:01;101289.00;;;22.21;47.21
47154;BME280;32907;41.412;2.164;2023-11-19T09:40:32;101286.84;;;22.18;44.28
47154;BME280;32907;41.412;2.164;2023-11-19T09:43:00;101288.81;;;22.12;44.15
47154;BME280;32907;41.412;2.164;2023-11-19T09:45:30;101294.25;;;22.12;43.80
47154;BME280;32907;41.412;2.164;2023-11-19T09:48:00;101294.03;;;22.09;43.63
47154;BME280;32907;41.412;2.164;2023-11-19T09:50:31;101295.88;;;22.13;43.06
47154;BME280;32907;41.412;2.164;2023-11-19T09:52:59;101300.78;;;22.16;43.42
47154;BME280;32907;41.412;2.164;2023-11-19T09:55:27;101296.63;;;22.24;43.86
47154;BME280;32907;41.412;2.164;2023-11-19T09:57:56;101300.41;;;22.28;43.28
47154;BME280;32907;41.412;2.164;2023-11-19T10:00:28;101295.00;;;22.23;42.75
47154;BME280;32907;41.412;2.164;2023-11-19T10:02:56;101299.09;;;22.20;43.08
47154;BME280;32907;41.412;2.164;2023-11-19T10:05:25;101305.13;;;22.22;42.47
47154;BME280;32907;41.412;2.164;2023-11-19T10:07:54;101309.78;;;22.22;42.10
47154;BME280;32907;41.412;2.164;2023-11-19T10:10:23;101295.56;;;22.20;42.41
47154;BME280;32907;41.412;2.164;2023-11-19T10:12:51;101304.31;;;22.22;44.25
47154;BME280;32907;41.412;2.164;2023-11-19T10:15:24;101291.38;;;22.27;44.79
47154;BME280;32907;41.412;2.164;2023-11-19T10:17:56;101286.44;;;22.29;43.65
47154;BME280;32907;41.412;2.164;2023-11-19T10:20:24;101276.44;;;22.20;44.30
47154;BME280;32907;41.412;2.164;2023-11-19T10:22:54;101291.16;;;22.24;44.46
47154;BME280;32907;41.412;2.164;2023-11-19T10:25:27;101286.50;;;22.24;44.43
47154;BME280;32907;41.412;2.164;2023-11-19T10:27:56;101287.06;;;22.21;44.91
47154;BME280;32907;41.412;2.164;2023-11-19T10:30:27;101293.38;;;22.22;45.34
47154;BME280;32907;41.412;2.164;2023-11-19T10:33:06;101281.34;;;22.23;45.10
47154;BME280;32907;41.412;2.164;2023-11-19T10:35:37;101273.16;;;22.23;43.97
47154;BME280;32907;41.412;2.164;2023-11-19T10:38:29;101282.44;;;22.22;43.82
47154;BME280;32907;41.412;2.164;2023-11-19T10:40:58;101278.63;;;22.23;43.50
47154;BME280;32907;41.412;2.164;2023-11-19T10:43:26;101270.97;;;22.20;43.21
47154;BME280;32907;41.412;2.164;2023-11-19T10:46:09;101276.44;;;22.20;42.58
47154;BME280;32907;41.412;2.164;2023-11-19T10:48:38;101273.19;;;22.18;43.32
47154;BME280;32907;41.412;2.164;2023-11-19T10:51:07;101269.94;;;22.16;44.28
47154;BME280;32907;41.412;2.164;2023-11-19T10:53:36;101254.91;;;22.13;43.86
47154;BME280;32907;41.412;2.164;2023-11-19T10:56:10;101265.00;;;22.18;43.47
47154;BME280;32907;41.412;2.164;2023-11-19T10:58:44;101254.88;;;22.18;43.53
47154;BME280;32907;41.412;2.164;2023-11-19T11:01:19;101242.91;;;22.14;43.05
47154;BME280;32907;41.412;2.164;2023-11-19T11:03:50;101249.94;;;22.20;43.09
47154;BME280;32907;41.412;2.164;2023-11-19T11:06:19;101251.28;;;22.23;43.46
47154;BME280;32907;41.412;2.164;2023-11-19T11:08:51;101249.09;;;22.25;43.60
47154;BME280;32907;41.412;2.164;2023-11-19T11:11:20;101238.16;;;22.25;42.99
47154;BME280;32907;41.412;2.164;2023-11-19T11:13:54;101236.53;;;22.24;43.13
47154;BME280;32907;41.412;2.164;2023-11-19T11:16:25;101235.94;;;22.27;42.93
47154;BME280;32907;41.412;2.164;2023-11-19T11:18:53;101227.75;;;22.27;43.02
47154;BME280;32907;41.412;2.164;2023-11-19T11:21:24;101222.78;;;22.29;42.45
47154;BME280;32907;41.412;2.164;2023-11-19T11:29:30;101218.72;;;22.26;42.91
47154;BME280;32907;41.412;2.164;2023-11-19T11:37:39;101200.91;;;22.34;43.72
47154;BME280;32907;41.412;2.164;2023-11-19T11:40:14;101196.50;;;22.38;44.34
47154;BME280;32907;41.412;2.164;2023-11-19T11:42:46;101193.69;;;22.43;44.13
47154;BME280;32907;41.412;2.164;2023-11-19T11:45:15;101197.47;;;22.47;43.62
47154;BME280;32907;41.412;2.164;2023-11-19T11:50:13;101187.00;;;22.54;44.06
47154;BME280;32907;41.412;2.164;2023-11-19T11:55:34;101185.81;;;22.60;43.66
47154;BME280;32907;41.412;2.164;2023-11-19T11:58:05;101181.97;;;22.61;43.60
47154;BME280;32907;41.412;2.164;2023-11-19T12:00:37;101178.16;;;22.63;43.46
47154;BME280;32907;41.412;2.164;2023-11-19T12:03:07;101172.09;;;22.66;43.33
47154;BME280;32907;41.412;2.164;2023-11-19T12:05:42;101179.19;;;22.67;43.38
47154;BME280;32907;41.412;2.164;2023-11-19T12:08:19;101167.94;;;22.68;44.31
47154;BME280;32907;41.412;2.164;2023-11-19T12:10:54;101162.41;;;22.73;43.68
47154;BME280;32907;41.412;2.164;2023-11-19T12:13:43;101164.03;;;22.74;43.74
47154;BME280;32907;41.412;2.164;2023-11-19T12:16:14;101156.66;;;22.75;44.11
47154;BME280;32907;41.412;2.164;2023-11-19T12:18:42;101158.78;;;22.78;43.86
47154;BME280;32907;41.412;2.164;2023-11-19T12:21:10;101154.66;;;22.80;43.74
47154;BME280;32907;41.412;2.164;2023-11-19T12:23:45;101157.72;;;22.79;43.53
47154;BME280;32907;41.412;2.164;2023-11-19T12:26:42;101153.03;;;22.79;44.06
47154;BME280;32907;41.412;2.164;2023-11-19T12:29:10;101151.13;;;22.80;43.89
47154;BME280;32907;41.412;2.164;2023-11-19T12:31:44;101143.44;;;22.82;43.94
47154;BME280;32907;41.412;2.164;2023-11-19T12:34:12;101143.44;;;22.82;44.15
47154;BME280;32907;41.412;2.164;2023-11-19T12:36:41;101139.59;;;22.83;43.92
47154;BME280;32907;41.412;2.164;2023-11-19T12:39:09;101139.59;;;22.83;44.25
47154;BME280;32907;41.412;2.164;2023-11-19T12:41:58;101135.19;;;22.87;44.29
47154;BME280;32907;41.412;2.164;2023-11-19T12:44:29;101132.47;;;22.87;44.10
47154;BME280;32907;41.412;2.164;2023-11-19T12:47:01;101131.06;;;22.89;44.45
47154;BME280;32907;41.412;2.164;2023-11-19T12:49:30;101128.53;;;22.93;44.50
47154;BME280;32907;41.412;2.164;2023-11-19T12:51:58;101118.38;;;22.94;44.74
47154;BME280;32907;41.412;2.164;2023-11-19T12:54:34;101128.47;;;22.98;44.73
47154;BME280;32907;41.412;2.164;2023-11-19T12:57:03;101117.22;;;23.00;45.06
47154;BME280;32907;41.412;2.164;2023-11-19T12:59:33;101118.84;;;23.01;44.95
47154;BME280;32907;41.412;2.164;2023-11-19T13:02:01;101109.25;;;23.03;44.83
47154;BME280;32907;41.412;2.164;2023-11-19T13:04:34;101096.25;;;22.95;45.15
47154;BME280;32907;41.412;2.164;2023-11-19T13:07:02;101106.19;;;23.05;45.08
47154;BME280;32907;41.412;2.164;2023-11-19T13:09:33;101112.19;;;23.07;44.61
47154;BME280;32907;41.412;2.164;2023-11-19T13:12:12;101109.25;;;23.03;44.85
47154;BME280;32907;41.412;2.164;2023-11-19T13:14:42;101109.25;;;23.03;45.06
47154;BME280;32907;41.412;2.164;2023-11-19T13:17:13;101058.84;;;22.72;44.94
47154;BME280;32907;41.412;2.164;2023-11-19T13:19:42;101103.22;;;23.01;44.59
47154;BME280;32907;41.412;2.164;2023-11-19T13:22:11;101087.72;;;22.97;45.17